sensor_id;sensor_type;location;lat;lon;timestamp;P1;durP1;ratioP1;P2;durP2;ratioP2
64674;SDS011;51090;51.512;11.332;2023-02-28T00:01:30;2.40;;;0.80;;
64674;SDS011;51090;51.512;11.332;2023-02-28T00:03:56;2.80;;;0.70;;
64674;SDS011;51090;51.512;11.332;2023-02-28T00:06:22;2.17;;;0.75;;
64674;SDS011;51090;51.512;11.332;2023-02-28T00:08:49;1.60;;;0.80;;
64674;SDS011;51090;51.512;11.332;2023-02-28T00:11:15;2.72;;;0.80;;
64674;SDS011;51090;51.512;11.332;2023-02-28T00:13:42;1.77;;;0.70;;
64674;SDS011;51090;51.512;11.332;2023-02-28T00:16:17;2.15;;;1.00;;
64674;SDS011;51090;51.512;11.332;2023-02-28T00:18:47;2.58;;;0.70;;
64674;SDS011;51090;51.512;11.332;2023-02-28T00:21:13;1.02;;;0.73;;
64674;SDS011;51090;51.512;11.332;2023-02-28T00:23:40;2.03;;;0.98;;
64674;SDS011;51090;51.512;11.332;2023-02-28T00:26:06;1.02;;;0.70;;
64674;SDS011;51090;51.512;11.332;2023-02-28T00:28:32;2.83;;;1.25;;
64674;SDS011;51090;51.512;11.332;2023-02-28T00:30:57;3.00;;;0.95;;
64674;SDS011;51090;51.512;11.332;2023-02-28T00:33:25;2.65;;;0.75;;
64674;SDS011;51090;51.512;11.332;2023-02-28T00:35:51;3.65;;;0.90;;
64674;SDS011;51090;51.512;11.332;2023-02-28T00:38:25;4.40;;;1.25;;
64674;SDS011;51090;51.512;11.332;2023-02-28T00:40:51;3.40;;;0.82;;
64674;SDS011;51090;51.512;11.332;2023-02-28T00:43:17;1.92;;;0.70;;
64674;SDS011;51090;51.512;11.332;2023-02-28T00:45:43;2.17;;;0.90;;
64674;SDS011;51090;51.512;11.332;2023-02-28T00:48:08;3.08;;;0.82;;
64674;SDS011;51090;51.512;11.332;2023-02-28T00:50:34;3.17;;;0.88;;
64674;SDS011;51090;51.512;11.332;2023-02-28T00:53:00;2.92;;;0.90;;
64674;SDS011;51090;51.512;11.332;2023-02-28T00:55:25;3.58;;;0.90;;
64674;SDS011;51090;51.512;11.332;2023-02-28T00:57:51;3.15;;;1.10;;
64674;SDS011;51090;51.512;11.332;2023-02-28T01:00:17;1.95;;;0.80;;
64674;SDS011;51090;51.512;11.332;2023-02-28T01:02:43;3.65;;;0.90;;
64674;SDS011;51090;51.512;11.332;2023-02-28T01:05:09;1.73;;;0.80;;
64674;SDS011;51090;51.512;11.332;2023-02-28T01:07:34;2.55;;;0.90;;
64674;SDS011;51090;51.512;11.332;2023-02-28T01:10:00;1.10;;;0.68;;
64674;SDS011;51090;51.512;11.332;2023-02-28T01:12:26;2.10;;;0.85;;
64674;SDS011;51090;51.512;11.332;2023-02-28T01:14:52;3.20;;;0.95;;
64674;SDS011;51090;51.512;11.332;2023-02-28T01:17:18;5.07;;;0.90;;
64674;SDS011;51090;51.512;11.332;2023-02-28T01:19:43;1.50;;;0.88;;
64674;SDS011;51090;51.512;11.332;2023-02-28T01:22:09;2.58;;;1.08;;
64674;SDS011;51090;51.512;11.332;2023-02-28T01:24:35;2.78;;;0.90;;
64674;SDS011;51090;51.512;11.332;2023-02-28T01:27:02;2.63;;;1.02;;
64674;SDS011;51090;51.512;11.332;2023-02-28T01:29:28;3.80;;;1.10;;
64674;SDS011;51090;51.512;11.332;2023-02-28T01:31:53;2.42;;;0.93;;
64674;SDS011;51090;51.512;11.332;2023-02-28T01:34:19;1.58;;;0.77;;
64674;SDS011;51090;51.512;11.332;2023-02-28T01:36:45;2.55;;;0.98;;
64674;SDS011;51090;51.512;11.332;2023-02-28T01:39:11;1.85;;;0.80;;
64674;SDS011;51090;51.512;11.332;2023-02-28T01:41:38;4.05;;;0.98;;
64674;SDS011;51090;51.512;11.332;2023-02-28T01:44:05;1.80;;;0.90;;
64674;SDS011;51090;51.512;11.332;2023-02-28T01:47:09;2.05;;;0.80;;
64674;SDS011;51090;51.512;11.332;2023-02-28T01:49:35;2.25;;;0.98;;
64674;SDS011;51090;51.512;11.332;2023-02-28T01:52:01;3.03;;;0.82;;
64674;SDS011;51090;51.512;11.332;2023-02-28T01:54:28;2.20;;;1.10;;
64674;SDS011;51090;51.512;11.332;2023-02-28T01:57:00;3.60;;;1.00;;
64674;SDS011;51090;51.512;11.332;2023-02-28T02:02:17;1.30;;;0.85;;
64674;SDS011;51090;51.512;11.332;2023-02-28T02:04:50;3.50;;;0.90;;
64674;SDS011;51090;51.512;11.332;2023-02-28T02:07:32;2.90;;;0.82;;
64674;SDS011;51090;51.512;11.332;2023-02-28T02:13:08;2.17;;;1.10;;
64674;SDS011;51090;51.512;11.332;2023-02-28T02:25:12;1.88;;;0.73;;
64674;SDS011;51090;51.512;11.332;2023-02-28T02:40:16;1.70;;;0.80;;
64674;SDS011;51090;51.512;11.332;2023-02-28T02:42:47;2.55;;;0.95;;
64674;SDS011;51090;51.512;11.332;2023-02-28T02:46:06;1.42;;;1.00;;
64674;SDS011;51090;51.512;11.332;2023-02-28T02:48:17;2.53;;;0.98;;
64674;SDS011;51090;51.512;11.332;2023-02-28T02:50:48;3.45;;;1.00;;
64674;SDS011;51090;51.512;11.332;2023-02-28T02:53:19;2.22;;;1.00;;
64674;SDS011;51090;51.512;11.332;2023-02-28T02:55:52;2.50;;;0.93;;
64674;SDS011;51090;51.512;11.332;2023-02-28T02:58:21;1.52;;;1.00;;
64674;SDS011;51090;51.512;11.332;2023-02-28T03:00:53;5.40;;;1.10;;
64674;SDS011;51090;51.512;11.332;2023-02-28T03:03:24;2.53;;;0.90;;
64674;SDS011;51090;51.512;11.332;2023-02-28T03:05:55;3.58;;;1.20;;
64674;SDS011;51090;51.512;11.332;2023-02-28T03:08:26;3.08;;;1.23;;
64674;SDS011;51090;51.512;11.332;2023-02-28T03:11:03;4.15;;;1.40;;
64674;SDS011;51090;51.512;11.332;2023-02-28T03:16:10;2.72;;;1.08;;
64674;SDS011;51090;51.512;11.332;2023-02-28T03:25:20;3.47;;;1.33;;
64674;SDS011;51090;51.512;11.332;2023-02-28T03:28:05;4.35;;;1.75;;
64674;SDS011;51090;51.512;11.332;2023-02-28T03:34:14;3.63;;;1.10;;
64674;SDS011;51090;51.512;11.332;2023-02-28T03:36:48;3.55;;;1.20;;
64674;SDS011;51090;51.512;11.332;2023-02-28T03:39:24;2.53;;;1.30;;
64674;SDS011;51090;51.512;11.332;2023-02-28T03:42:11;3.45;;;1.20;;
64674;SDS011;51090;51.512;11.332;2023-02-28T03:44:45;2.15;;;1.10;;
64674;SDS011;51090;51.512;11.332;2023-02-28T03:47:27;2.38;;;1.10;;
64674;SDS011;51090;51.512;11.332;2023-02-28T03:50:05;3.08;;;1.17;;
64674;SDS011;51090;51.512;11.332;2023-02-28T03:52:42;4.10;;;1.50;;
64674;SDS011;51090;51.512;11.332;2023-02-28T03:55:15;3.92;;;1.55;;
64674;SDS011;51090;51.512;11.332;2023-02-28T03:57:45;3.10;;;1.23;;
64674;SDS011;51090;51.512;11.332;2023-02-28T04:01:04;2.45;;;1.10;;
64674;SDS011;51090;51.512;11.332;2023-02-28T04:03:54;3.30;;;1.45;;
64674;SDS011;51090;51.512;11.332;2023-02-28T04:06:20;4.45;;;1.52;;
64674;SDS011;51090;51.512;11.332;2023-02-28T04:08:48;3.95;;;1.45;;
64674;SDS011;51090;51.512;11.332;2023-02-28T04:13:40;5.13;;;1.17;;
64674;SDS011;51090;51.512;11.332;2023-02-28T04:16:08;2.42;;;1.40;;
64674;SDS011;51090;51.512;11.332;2023-02-28T04:18:43;3.35;;;1.58;;
64674;SDS011;51090;51.512;11.332;2023-02-28T04:21:09;3.17;;;1.40;;
64674;SDS011;51090;51.512;11.332;2023-02-28T04:23:36;3.08;;;1.23;;
64674;SDS011;51090;51.512;11.332;2023-02-28T04:26:02;3.33;;;1.40;;
64674;SDS011;51090;51.512;11.332;2023-02-28T04:28:28;4.00;;;1.38;;
64674;SDS011;51090;51.512;11.332;2023-02-28T04:30:55;3.70;;;1.35;;
64674;SDS011;51090;51.512;11.332;2023-02-28T04:33:26;2.78;;;1.20;;
64674;SDS011;51090;51.512;11.332;2023-02-28T04:35:59;2.03;;;1.10;;
64674;SDS011;51090;51.512;11.332;2023-02-28T04:38:32;3.25;;;1.20;;
64674;SDS011;51090;51.512;11.332;2023-02-28T04:41:00;4.93;;;1.48;;
64674;SDS011;51090;51.512;11.332;2023-02-28T04:43:29;3.97;;;1.42;;
64674;SDS011;51090;51.512;11.332;2023-02-28T04:45:56;4.10;;;1.80;;
64674;SDS011;51090;51.512;11.332;2023-02-28T04:48:29;4.05;;;1.52;;
64674;SDS011;51090;51.512;11.332;2023-02-28T04:51:01;3.53;;;1.38;;
64674;SDS011;51090;51.512;11.332;2023-02-28T04:53:32;3.00;;;1.27;;
64674;SDS011;51090;51.512;11.332;2023-02-28T04:55:58;2.67;;;1.33;;
64674;SDS011;51090;51.512;11.332;2023-02-28T04:58:24;1.50;;;1.00;;
64674;SDS011;51090;51.512;11.332;2023-02-28T05:00:51;3.65;;;1.45;;
64674;SDS011;51090;51.512;11.332;2023-02-28T05:03:18;6.32;;;1.65;;
64674;SDS011;51090;51.512;11.332;2023-02-28T05:05:45;5.18;;;1.40;;
64674;SDS011;51090;51.512;11.332;2023-02-28T05:08:11;5.07;;;1.35;;
64674;SDS011;51090;51.512;11.332;2023-02-28T05:10:37;5.50;;;1.70;;
64674;SDS011;51090;51.512;11.332;2023-02-28T05:13:04;2.75;;;1.52;;
64674;SDS011;51090;51.512;11.332;2023-02-28T05:15:30;3.58;;;1.60;;
64674;SDS011;51090;51.512;11.332;2023-02-28T05:17:56;4.10;;;1.63;;
64674;SDS011;51090;51.512;11.332;2023-02-28T05:20:21;3.17;;;1.40;;
64674;SDS011;51090;51.512;11.332;2023-02-28T05:22:47;4.38;;;1.60;;
64674;SDS011;51090;51.512;11.332;2023-02-28T05:25:16;5.05;;;1.20;;
64674;SDS011;51090;51.512;11.332;2023-02-28T05:27:44;2.65;;;1.60;;
64674;SDS011;51090;51.512;11.332;2023-02-28T05:30:10;5.65;;;1.60;;
64674;SDS011;51090;51.512;11.332;2023-02-28T05:32:37;3.88;;;1.80;;
64674;SDS011;51090;51.512;11.332;2023-02-28T05:35:07;5.13;;;1.80;;
64674;SDS011;51090;51.512;11.332;2023-02-28T05:37:35;3.50;;;1.70;;
64674;SDS011;51090;51.512;11.332;2023-02-28T05:40:01;5.68;;;1.55;;
64674;SDS011;51090;51.512;11.332;2023-02-28T05:42:31;5.22;;;1.70;;
64674;SDS011;51090;51.512;11.332;2023-02-28T05:44:57;3.92;;;1.75;;
64674;SDS011;51090;51.512;11.332;2023-02-28T05:47:22;5.30;;;1.80;;
64674;SDS011;51090;51.512;11.332;2023-02-28T05:49:48;4.78;;;1.40;;
64674;SDS011;51090;51.512;11.332;2023-02-28T05:52:14;2.75;;;1.45;;
64674;SDS011;51090;51.512;11.332;2023-02-28T05:54:40;5.43;;;1.83;;
64674;SDS011;51090;51.512;11.332;2023-02-28T05:57:06;4.32;;;1.70;;
64674;SDS011;51090;51.512;11.332;2023-02-28T05:59:32;4.03;;;1.98;;
64674;SDS011;51090;51.512;11.332;2023-02-28T06:01:58;3.70;;;1.88;;
64674;SDS011;51090;51.512;11.332;2023-02-28T06:04:23;5.07;;;1.90;;
64674;SDS011;51090;51.512;11.332;2023-02-28T06:06:49;4.85;;;1.95;;
64674;SDS011;51090;51.512;11.332;2023-02-28T06:09:16;4.47;;;2.17;;
64674;SDS011;51090;51.512;11.332;2023-02-28T06:11:42;6.40;;;2.10;;
64674;SDS011;51090;51.512;11.332;2023-02-28T06:14:12;4.55;;;1.70;;
64674;SDS011;51090;51.512;11.332;2023-02-28T06:16:42;3.42;;;1.63;;
64674;SDS011;51090;51.512;11.332;2023-02-28T06:19:08;3.83;;;1.23;;
64674;SDS011;51090;51.512;11.332;2023-02-28T06:21:35;4.15;;;1.75;;
64674;SDS011;51090;51.512;11.332;2023-02-28T06:24:01;4.00;;;1.48;;
64674;SDS011;51090;51.512;11.332;2023-02-28T06:26:28;4.78;;;1.80;;
64674;SDS011;51090;51.512;11.332;2023-02-28T06:28:54;5.60;;;1.58;;
64674;SDS011;51090;51.512;11.332;2023-02-28T06:31:20;5.85;;;1.63;;
64674;SDS011;51090;51.512;11.332;2023-02-28T06:33:47;5.40;;;1.70;;
64674;SDS011;51090;51.512;11.332;2023-02-28T06:36:14;3.40;;;1.65;;
64674;SDS011;51090;51.512;11.332;2023-02-28T06:38:41;6.85;;;1.50;;
64674;SDS011;51090;51.512;11.332;2023-02-28T06:41:07;4.47;;;2.00;;
64674;SDS011;51090;51.512;11.332;2023-02-28T06:43:34;5.03;;;1.70;;
64674;SDS011;51090;51.512;11.332;2023-02-28T06:46:07;3.47;;;1.30;;
64674;SDS011;51090;51.512;11.332;2023-02-28T06:48:35;5.10;;;1.80;;
64674;SDS011;51090;51.512;11.332;2023-02-28T06:51:02;5.13;;;1.95;;
64674;SDS011;51090;51.512;11.332;2023-02-28T06:53:34;5.50;;;1.73;;
64674;SDS011;51090;51.512;11.332;2023-02-28T06:56:04;3.25;;;1.90;;
64674;SDS011;51090;51.512;11.332;2023-02-28T06:58:34;6.47;;;1.85;;
64674;SDS011;51090;51.512;11.332;2023-02-28T07:01:01;4.93;;;1.92;;
64674;SDS011;51090;51.512;11.332;2023-02-28T07:03:27;4.18;;;1.75;;
64674;SDS011;51090;51.512;11.332;2023-02-28T07:05:53;4.95;;;1.67;;
64674;SDS011;51090;51.512;11.332;2023-02-28T07:08:21;4.95;;;1.63;;
64674;SDS011;51090;51.512;11.332;2023-02-28T07:10:56;4.13;;;2.22;;
64674;SDS011;51090;51.512;11.332;2023-02-28T07:13:23;3.55;;;2.03;;
64674;SDS011;51090;51.512;11.332;2023-02-28T07:15:59;6.00;;;2.15;;
64674;SDS011;51090;51.512;11.332;2023-02-28T07:18:28;5.57;;;2.05;;
64674;SDS011;51090;51.512;11.332;2023-02-28T07:20:54;4.80;;;1.90;;
64674;SDS011;51090;51.512;11.332;2023-02-28T07:23:20;6.45;;;2.03;;
64674;SDS011;51090;51.512;11.332;2023-02-28T07:25:47;4.07;;;2.60;;
64674;SDS011;51090;51.512;11.332;2023-02-28T07:28:14;4.20;;;2.03;;
64674;SDS011;51090;51.512;11.332;2023-02-28T07:30:40;6.10;;;2.03;;
64674;SDS011;51090;51.512;11.332;2023-02-28T07:33:06;8.52;;;1.80;;
64674;SDS011;51090;51.512;11.332;2023-02-28T07:35:32;4.35;;;2.10;;
64674;SDS011;51090;51.512;11.332;2023-02-28T07:37:58;6.07;;;2.40;;
64674;SDS011;51090;51.512;11.332;2023-02-28T07:40:24;6.68;;;2.30;;
64674;SDS011;51090;51.512;11.332;2023-02-28T07:42:51;4.93;;;2.13;;
64674;SDS011;51090;51.512;11.332;2023-02-28T07:45:17;5.80;;;2.17;;
64674;SDS011;51090;51.512;11.332;2023-02-28T07:47:43;6.88;;;2.30;;
64674;SDS011;51090;51.512;11.332;2023-02-28T07:50:10;5.45;;;2.17;;
64674;SDS011;51090;51.512;11.332;2023-02-28T07:52:39;5.85;;;2.10;;
64674;SDS011;51090;51.512;11.332;2023-02-28T07:55:05;4.78;;;2.30;;
64674;SDS011;51090;51.512;11.332;2023-02-28T07:57:33;4.43;;;1.98;;
64674;SDS011;51090;51.512;11.332;2023-02-28T07:59:59;4.40;;;2.25;;
64674;SDS011;51090;51.512;11.332;2023-02-28T08:02:24;6.85;;;2.45;;
64674;SDS011;51090;51.512;11.332;2023-02-28T08:04:51;5.82;;;2.33;;
64674;SDS011;51090;51.512;11.332;2023-02-28T08:07:17;5.85;;;2.42;;
64674;SDS011;51090;51.512;11.332;2023-02-28T08:09:43;6.38;;;2.42;;
64674;SDS011;51090;51.512;11.332;2023-02-28T08:12:09;4.72;;;2.30;;
64674;SDS011;51090;51.512;11.332;2023-02-28T08:14:36;5.72;;;2.45;;
64674;SDS011;51090;51.512;11.332;2023-02-28T08:17:03;4.00;;;2.17;;
64674;SDS011;51090;51.512;11.332;2023-02-28T08:19:29;5.28;;;2.50;;
64674;SDS011;51090;51.512;11.332;2023-02-28T08:21:55;7.82;;;2.33;;
64674;SDS011;51090;51.512;11.332;2023-02-28T08:24:22;4.72;;;2.35;;
64674;SDS011;51090;51.512;11.332;2023-02-28T08:26:48;4.70;;;2.30;;
64674;SDS011;51090;51.512;11.332;2023-02-28T08:29:14;6.95;;;2.40;;
64674;SDS011;51090;51.512;11.332;2023-02-28T08:31:39;4.30;;;2.38;;
64674;SDS011;51090;51.512;11.332;2023-02-28T08:34:07;5.68;;;2.22;;
64674;SDS011;51090;51.512;11.332;2023-02-28T08:36:34;5.13;;;2.00;;
64674;SDS011;51090;51.512;11.332;2023-02-28T08:39:00;6.50;;;2.92;;
64674;SDS011;51090;51.512;11.332;2023-02-28T08:41:26;6.22;;;2.55;;
64674;SDS011;51090;51.512;11.332;2023-02-28T08:43:52;4.30;;;2.55;;
64674;SDS011;51090;51.512;11.332;2023-02-28T08:46:18;4.95;;;2.70;;
64674;SDS011;51090;51.512;11.332;2023-02-28T08:48:44;4.95;;;2.47;;
64674;SDS011;51090;51.512;11.332;2023-02-28T08:51:12;5.93;;;2.63;;
64674;SDS011;51090;51.512;11.332;2023-02-28T08:53:44;8.13;;;2.65;;
64674;SDS011;51090;51.512;11.332;2023-02-28T08:56:14;7.65;;;3.92;;
64674;SDS011;51090;51.512;11.332;2023-02-28T08:58:42;7.45;;;3.03;;
64674;SDS011;51090;51.512;11.332;2023-02-28T09:01:09;7.72;;;2.85;;
64674;SDS011;51090;51.512;11.332;2023-02-28T09:03:39;4.75;;;2.70;;
64674;SDS011;51090;51.512;11.332;2023-02-28T09:06:06;6.25;;;2.95;;
64674;SDS011;51090;51.512;11.332;2023-02-28T09:08:33;5.68;;;3.00;;
64674;SDS011;51090;51.512;11.332;2023-02-28T09:10:59;7.05;;;3.08;;
64674;SDS011;51090;51.512;11.332;2023-02-28T09:13:27;4.63;;;2.90;;
64674;SDS011;51090;51.512;11.332;2023-02-28T09:15:54;5.05;;;2.25;;
64674;SDS011;51090;51.512;11.332;2023-02-28T09:18:25;6.13;;;3.03;;
64674;SDS011;51090;51.512;11.332;2023-02-28T09:20:51;5.50;;;2.63;;
64674;SDS011;51090;51.512;11.332;2023-02-28T09:23:17;5.32;;;2.85;;
64674;SDS011;51090;51.512;11.332;2023-02-28T09:25:47;7.07;;;2.42;;
64674;SDS011;51090;51.512;11.332;2023-02-28T09:28:17;6.22;;;2.58;;
64674;SDS011;51090;51.512;11.332;2023-02-28T09:30:47;4.57;;;2.45;;
64674;SDS011;51090;51.512;11.332;2023-02-28T09:33:16;6.20;;;3.10;;
64674;SDS011;51090;51.512;11.332;2023-02-28T09:35:44;6.13;;;2.58;;
64674;SDS011;51090;51.512;11.332;2023-02-28T09:38:10;4.60;;;2.65;;
64674;SDS011;51090;51.512;11.332;2023-02-28T09:40:47;5.22;;;2.67;;
64674;SDS011;51090;51.512;11.332;2023-02-28T09:43:16;8.32;;;3.47;;
64674;SDS011;51090;51.512;11.332;2023-02-28T09:45:52;8.52;;;3.05;;
64674;SDS011;51090;51.512;11.332;2023-02-28T09:48:39;6.05;;;2.60;;
64674;SDS011;51090;51.512;11.332;2023-02-28T09:53:53;7.18;;;3.45;;
64674;SDS011;51090;51.512;11.332;2023-02-28T09:56:39;5.65;;;2.63;;
64674;SDS011;51090;51.512;11.332;2023-02-28T09:59:16;4.88;;;3.15;;
64674;SDS011;51090;51.512;11.332;2023-02-28T10:05:15;3.50;;;2.22;;
64674;SDS011;51090;51.512;11.332;2023-02-28T10:10:44;5.68;;;2.50;;
64674;SDS011;51090;51.512;11.332;2023-02-28T10:13:23;4.35;;;2.35;;
64674;SDS011;51090;51.512;11.332;2023-02-28T10:15:55;5.57;;;2.80;;
64674;SDS011;51090;51.512;11.332;2023-02-28T10:18:59;6.38;;;2.17;;
64674;SDS011;51090;51.512;11.332;2023-02-28T10:21:43;7.10;;;2.88;;
64674;SDS011;51090;51.512;11.332;2023-02-28T10:27:15;7.57;;;3.63;;
64674;SDS011;51090;51.512;11.332;2023-02-28T10:29:50;5.78;;;3.03;;
64674;SDS011;51090;51.512;11.332;2023-02-28T10:34:59;6.78;;;2.72;;
64674;SDS011;51090;51.512;11.332;2023-02-28T10:37:34;5.10;;;2.75;;
64674;SDS011;51090;51.512;11.332;2023-02-28T10:40:04;6.85;;;3.15;;
64674;SDS011;51090;51.512;11.332;2023-02-28T10:43:22;5.07;;;2.45;;
64674;SDS011;51090;51.512;11.332;2023-02-28T10:45:55;5.25;;;2.85;;
64674;SDS011;51090;51.512;11.332;2023-02-28T10:51:08;5.93;;;2.83;;
64674;SDS011;51090;51.512;11.332;2023-02-28T10:53:45;4.22;;;2.40;;
64674;SDS011;51090;51.512;11.332;2023-02-28T11:01:48;6.53;;;2.67;;
64674;SDS011;51090;51.512;11.332;2023-02-28T11:09:45;7.93;;;3.10;;
64674;SDS011;51090;51.512;11.332;2023-02-28T11:12:21;8.18;;;3.88;;
64674;SDS011;51090;51.512;11.332;2023-02-28T11:14:57;5.72;;;3.55;;
64674;SDS011;51090;51.512;11.332;2023-02-28T11:17:43;9.23;;;4.15;;
64674;SDS011;51090;51.512;11.332;2023-02-28T11:22:48;7.57;;;3.42;;
64674;SDS011;51090;51.512;11.332;2023-02-28T11:25:19;9.52;;;4.05;;
64674;SDS011;51090;51.512;11.332;2023-02-28T11:27:56;7.65;;;4.10;;
64674;SDS011;51090;51.512;11.332;2023-02-28T11:33:00;7.07;;;3.50;;
64674;SDS011;51090;51.512;11.332;2023-02-28T11:35:45;8.30;;;4.07;;
64674;SDS011;51090;51.512;11.332;2023-02-28T11:38:14;7.20;;;4.13;;
64674;SDS011;51090;51.512;11.332;2023-02-28T11:40:43;9.65;;;3.53;;
64674;SDS011;51090;51.512;11.332;2023-02-28T11:43:25;8.00;;;3.35;;
64674;SDS011;51090;51.512;11.332;2023-02-28T11:51:32;4.25;;;2.92;;
64674;SDS011;51090;51.512;11.332;2023-02-28T11:56:39;6.25;;;3.10;;
64674;SDS011;51090;51.512;11.332;2023-02-28T12:02:34;6.65;;;3.17;;
64674;SDS011;51090;51.512;11.332;2023-02-28T12:11:19;7.32;;;3.30;;
64674;SDS011;51090;51.512;11.332;2023-02-28T12:16:46;6.10;;;3.40;;
64674;SDS011;51090;51.512;11.332;2023-02-28T12:19:37;6.82;;;3.33;;
64674;SDS011;51090;51.512;11.332;2023-02-28T12:28:14;6.45;;;3.30;;
64674;SDS011;51090;51.512;11.332;2023-02-28T12:30:57;5.72;;;2.90;;
64674;SDS011;51090;51.512;11.332;2023-02-28T12:33:32;5.00;;;3.00;;
64674;SDS011;51090;51.512;11.332;2023-02-28T12:36:09;6.45;;;2.72;;
64674;SDS011;51090;51.512;11.332;2023-02-28T12:38:47;7.25;;;3.40;;
64674;SDS011;51090;51.512;11.332;2023-02-28T12:41:33;6.65;;;3.30;;
64674;SDS011;51090;51.512;11.332;2023-02-28T12:44:34;5.55;;;2.83;;
64674;SDS011;51090;51.512;11.332;2023-02-28T12:47:15;7.57;;;4.07;;
64674;SDS011;51090;51.512;11.332;2023-02-28T12:49:54;10.57;;;3.92;;
64674;SDS011;51090;51.512;11.332;2023-02-28T12:55:27;6.47;;;3.85;;
64674;SDS011;51090;51.512;11.332;2023-02-28T12:58:13;6.95;;;3.65;;
64674;SDS011;51090;51.512;11.332;2023-02-28T13:10:02;6.28;;;3.92;;
64674;SDS011;51090;51.512;11.332;2023-02-28T13:12:32;6.47;;;3.65;;
64674;SDS011;51090;51.512;11.332;2023-02-28T13:15:16;7.15;;;3.42;;
64674;SDS011;51090;51.512;11.332;2023-02-28T13:17:50;9.32;;;4.05;;
64674;SDS011;51090;51.512;11.332;2023-02-28T13:20:22;7.07;;;3.63;;
64674;SDS011;51090;51.512;11.332;2023-02-28T13:23:00;7.10;;;4.32;;
64674;SDS011;51090;51.512;11.332;2023-02-28T13:25:49;7.60;;;3.83;;
64674;SDS011;51090;51.512;11.332;2023-02-28T13:28:56;7.28;;;3.67;;
64674;SDS011;51090;51.512;11.332;2023-02-28T13:31:15;10.05;;;4.53;;
64674;SDS011;51090;51.512;11.332;2023-02-28T13:38:52;7.13;;;3.75;;
64674;SDS011;51090;51.512;11.332;2023-02-28T13:44:07;8.13;;;4.28;;
64674;SDS011;51090;51.512;11.332;2023-02-28T14:05:43;9.95;;;4.43;;
64674;SDS011;51090;51.512;11.332;2023-02-28T14:08:16;9.02;;;4.25;;
64674;SDS011;51090;51.512;11.332;2023-02-28T14:10:49;7.43;;;4.25;;
64674;SDS011;51090;51.512;11.332;2023-02-28T14:16:12;8.23;;;4.63;;
64674;SDS011;51090;51.512;11.332;2023-02-28T14:18:48;7.40;;;3.88;;
64674;SDS011;51090;51.512;11.332;2023-02-28T14:21:33;7.78;;;4.22;;
64674;SDS011;51090;51.512;11.332;2023-02-28T14:37:50;6.68;;;3.97;;
64674;SDS011;51090;51.512;11.332;2023-02-28T14:40:20;7.18;;;4.15;;
64674;SDS011;51090;51.512;11.332;2023-02-28T14:43:00;8.40;;;4.10;;
64674;SDS011;51090;51.512;11.332;2023-02-28T14:45:30;8.48;;;4.15;;
64674;SDS011;51090;51.512;11.332;2023-02-28T14:48:02;6.78;;;4.13;;
64674;SDS011;51090;51.512;11.332;2023-02-28T14:50:34;8.60;;;4.20;;
64674;SDS011;51090;51.512;11.332;2023-02-28T14:53:02;9.25;;;4.40;;
64674;SDS011;51090;51.512;11.332;2023-02-28T14:55:34;7.57;;;4.72;;
64674;SDS011;51090;51.512;11.332;2023-02-28T14:58:04;5.22;;;3.90;;
64674;SDS011;51090;51.512;11.332;2023-02-28T15:03:17;6.40;;;4.15;;
64674;SDS011;51090;51.512;11.332;2023-02-28T15:08:21;7.25;;;4.15;;
64674;SDS011;51090;51.512;11.332;2023-02-28T15:10:51;9.02;;;4.28;;
64674;SDS011;51090;51.512;11.332;2023-02-28T15:13:22;6.22;;;3.72;;
64674;SDS011;51090;51.512;11.332;2023-02-28T15:15:56;8.98;;;4.60;;
64674;SDS011;51090;51.512;11.332;2023-02-28T15:18:28;6.68;;;4.13;;
64674;SDS011;51090;51.512;11.332;2023-02-28T15:21:12;9.05;;;4.00;;
64674;SDS011;51090;51.512;11.332;2023-02-28T15:23:42;5.85;;;3.70;;
64674;SDS011;51090;51.512;11.332;2023-02-28T15:26:19;9.88;;;4.53;;
64674;SDS011;51090;51.512;11.332;2023-02-28T15:28:55;7.93;;;4.15;;
64674;SDS011;51090;51.512;11.332;2023-02-28T15:31:34;10.07;;;4.65;;
64674;SDS011;51090;51.512;11.332;2023-02-28T15:34:18;11.00;;;4.63;;
64674;SDS011;51090;51.512;11.332;2023-02-28T15:37:06;7.55;;;4.30;;
64674;SDS011;51090;51.512;11.332;2023-02-28T15:39:53;7.65;;;4.30;;
64674;SDS011;51090;51.512;11.332;2023-02-28T15:42:23;7.45;;;4.22;;
64674;SDS011;51090;51.512;11.332;2023-02-28T15:44:53;8.38;;;4.20;;
64674;SDS011;51090;51.512;11.332;2023-02-28T15:47:20;9.20;;;4.18;;
64674;SDS011;51090;51.512;11.332;2023-02-28T15:49:51;8.18;;;4.22;;
64674;SDS011;51090;51.512;11.332;2023-02-28T15:52:27;12.35;;;5.20;;
64674;SDS011;51090;51.512;11.332;2023-02-28T15:55:22;10.63;;;4.60;;
64674;SDS011;51090;51.512;11.332;2023-02-28T15:57:53;7.45;;;3.88;;
64674;SDS011;51090;51.512;11.332;2023-02-28T16:00:24;7.88;;;4.38;;
64674;SDS011;51090;51.512;11.332;2023-02-28T16:02:52;7.80;;;3.88;;
64674;SDS011;51090;51.512;11.332;2023-02-28T16:05:24;7.82;;;4.40;;
64674;SDS011;51090;51.512;11.332;2023-02-28T16:07:55;7.50;;;3.88;;
64674;SDS011;51090;51.512;11.332;2023-02-28T16:10:42;8.40;;;4.20;;
64674;SDS011;51090;51.512;11.332;2023-02-28T16:13:08;8.73;;;3.70;;
64674;SDS011;51090;51.512;11.332;2023-02-28T16:15:41;9.30;;;3.72;;
64674;SDS011;51090;51.512;11.332;2023-02-28T16:18:12;10.80;;;4.43;;
64674;SDS011;51090;51.512;11.332;2023-02-28T16:20:38;8.13;;;4.35;;
64674;SDS011;51090;51.512;11.332;2023-02-28T16:23:04;9.43;;;3.97;;
64674;SDS011;51090;51.512;11.332;2023-02-28T16:25:34;10.38;;;4.07;;
64674;SDS011;51090;51.512;11.332;2023-02-28T16:28:07;9.35;;;4.82;;
64674;SDS011;51090;51.512;11.332;2023-02-28T16:30:45;7.22;;;3.63;;
64674;SDS011;51090;51.512;11.332;2023-02-28T16:33:11;6.50;;;3.58;;
64674;SDS011;51090;51.512;11.332;2023-02-28T16:35:37;8.98;;;3.95;;
64674;SDS011;51090;51.512;11.332;2023-02-28T16:38:03;9.88;;;3.78;;
64674;SDS011;51090;51.512;11.332;2023-02-28T16:40:28;9.63;;;4.25;;
64674;SDS011;51090;51.512;11.332;2023-02-28T16:42:59;8.43;;;4.15;;
64674;SDS011;51090;51.512;11.332;2023-02-28T16:45:29;9.60;;;4.75;;
64674;SDS011;51090;51.512;11.332;2023-02-28T16:47:55;10.55;;;3.88;;
64674;SDS011;51090;51.512;11.332;2023-02-28T16:50:25;8.15;;;3.88;;
64674;SDS011;51090;51.512;11.332;2023-02-28T16:52:53;11.63;;;3.72;;
64674;SDS011;51090;51.512;11.332;2023-02-28T16:55:19;7.57;;;3.95;;
64674;SDS011;51090;51.512;11.332;2023-02-28T16:57:56;7.55;;;3.83;;
64674;SDS011;51090;51.512;11.332;2023-02-28T17:00:24;11.48;;;4.35;;
64674;SDS011;51090;51.512;11.332;2023-02-28T17:02:52;7.85;;;3.80;;
64674;SDS011;51090;51.512;11.332;2023-02-28T17:05:18;7.72;;;3.00;;
64674;SDS011;51090;51.512;11.332;2023-02-28T17:07:45;6.05;;;3.55;;
64674;SDS011;51090;51.512;11.332;2023-02-28T17:12:51;10.27;;;4.07;;
64674;SDS011;51090;51.512;11.332;2023-02-28T17:15:18;7.10;;;3.83;;
64674;SDS011;51090;51.512;11.332;2023-02-28T17:17:45;7.65;;;3.80;;
64674;SDS011;51090;51.512;11.332;2023-02-28T17:20:20;6.63;;;3.55;;
64674;SDS011;51090;51.512;11.332;2023-02-28T17:22:51;8.73;;;3.50;;
64674;SDS011;51090;51.512;11.332;2023-02-28T17:25:18;9.00;;;4.18;;
64674;SDS011;51090;51.512;11.332;2023-02-28T17:27:44;6.70;;;3.65;;
64674;SDS011;51090;51.512;11.332;2023-02-28T17:30:15;6.53;;;3.47;;
64674;SDS011;51090;51.512;11.332;2023-02-28T17:32:41;8.15;;;3.47;;
64674;SDS011;51090;51.512;11.332;2023-02-28T17:35:07;8.13;;;3.95;;
64674;SDS011;51090;51.512;11.332;2023-02-28T17:37:34;7.25;;;3.40;;
64674;SDS011;51090;51.512;11.332;2023-02-28T17:39:59;8.43;;;4.05;;
64674;SDS011;51090;51.512;11.332;2023-02-28T17:42:25;7.60;;;4.00;;